Time;durP1;ratioP1;P1;durP2;ratioP2;P2;SDS_P1;SDS_P2;PMS_P1;PMS_P2;Temp;Humidity;BMP_temperature;BMP_pressure;BME280_temperature;BME280_humidity;BME280_pressure;Samples;Min_cycle;Max_cycle;Signal;HPM_P1;HPM_P2
2021/09/06 00:01:09;;;;;;;25.88;15.43;;;;;;;15.86;75.32;101974.19;4983439;28;20042;-74
2021/09/06 00:03:35;;;;;;;29.98;15.30;;;;;;;15.84;75.31;101963.91;4997782;28;20354;-74
2021/09/06 00:06:00;;;;;;;28.17;14.77;;;;;;;15.84;75.17;101970.91;4998544;28;20400;-74
2021/09/06 00:08:26;;;;;;;25.13;15.48;;;;;;;15.84;74.89;101970.91;4999450;28;20118;-74
2021/09/06 00:11:05;;;;;;;30.77;16.98;;;;;;;15.77;75.60;101968.97;4987223;28;20069;-74
2021/09/06 00:13:32;;;;;;;28.25;16.42;;;;;;;15.70;75.85;101969.75;5001688;28;20031;-74
2021/09/06 00:15:58;;;;;;;27.88;14.85;;;;;;;15.63;76.12;101977.38;4988800;28;20092;-74
2021/09/06 00:18:25;;;;;;;24.92;13.93;;;;;;;15.59;76.26;101973.47;4988566;28;20042;-74
2021/09/06 00:20:51;;;;;;;27.15;14.85;;;;;;;15.55;76.44;101972.97;4986506;28;20040;-74
2021/09/06 00:23:17;;;;;;;22.85;14.15;;;;;;;15.49;76.49;101973.63;5000872;28;20566;-74
2021/09/06 00:25:43;;;;;;;27.10;14.90;;;;;;;15.45;76.79;101963.66;4986423;28;20121;-74
2021/09/06 00:28:08;;;;;;;23.90;14.80;;;;;;;15.39;76.96;101962.50;4989292;28;20599;-74
2021/09/06 00:30:34;;;;;;;27.23;14.82;;;;;;;15.39;76.81;101967.72;4969183;28;20586;-74
2021/09/06 00:33:00;;;;;;;26.75;14.40;;;;;;;15.40;76.76;101971.16;5001605;28;20049;-74
2021/09/06 00:35:25;;;;;;;27.08;15.30;;;;;;;15.40;76.81;101973.75;4987757;28;20443;-74
2021/09/06 00:37:51;;;;;;;25.40;15.77;;;;;;;15.36;76.60;101974.06;4988460;28;20026;-74
2021/09/06 00:40:17;;;;;;;25.55;15.50;;;;;;;15.27;76.90;101979.44;5002733;28;20529;-74
2021/09/06 00:42:43;;;;;;;29.52;15.60;;;;;;;15.25;77.21;101969.13;5003080;28;20122;-74
2021/09/06 00:45:10;;;;;;;26.33;15.30;;;;;;;15.26;76.76;101964.75;4985989;28;20141;-74
2021/09/06 00:47:37;;;;;;;25.88;13.77;;;;;;;15.26;76.75;101969.97;4987450;28;20109;-75
2021/09/06 00:50:06;;;;;;;24.45;14.63;;;;;;;15.25;76.55;101969.13;5002892;28;20603;-74
2021/09/06 00:52:37;;;;;;;24.17;13.77;;;;;;;15.24;76.65;101972.75;4984213;28;20126;-74
2021/09/06 00:55:04;;;;;;;23.13;13.65;;;;;;;15.22;76.55;101968.63;5001651;28;20169;-74
2021/09/06 00:57:32;;;;;;;27.50;15.13;;;;;;;15.21;76.69;101972.22;5003390;28;20515;-74
2021/09/06 00:59:57;;;;;;;24.27;14.07;;;;;;;15.14;76.75;101972.88;5002589;28;20030;-74
2021/09/06 01:02:24;;;;;;;26.92;14.57;;;;;;;15.07;77.37;101971.03;5001261;28;20539;-74
2021/09/06 01:04:51;;;;;;;27.67;15.55;;;;;;;15.05;77.05;101979.03;4988512;28;20412;-74
2021/09/06 01:07:34;;;;;;;31.83;16.00;;;;;;;15.07;76.97;101974.47;5001421;28;20034;-74
2021/09/06 01:10:19;;;;;;;25.95;14.80;;;;;;;15.04;76.76;101974.78;4971630;28;20034;-74
2021/09/06 01:12:58;;;;;;;27.83;15.63;;;;;;;15.01;77.08;101972.47;5001407;28;20027;-74
2021/09/06 01:15:27;;;;;;;23.52;14.75;;;;;;;15.02;76.90;101974.13;5001134;28;20038;-75
2021/09/06 01:17:53;;;;;;;30.02;16.45;;;;;;;14.99;76.95;101972.66;4987357;28;20105;-74
2021/09/06 01:20:19;;;;;;;29.02;15.48;;;;;;;14.97;76.68;101969.38;4999258;28;20038;-74
2021/09/06 01:22:53;;;;;;;24.35;14.70;;;;;;;14.96;76.73;101967.72;5001782;28;20026;-74
2021/09/06 01:25:21;;;;;;;34.47;15.90;;;;;;;14.92;76.66;101970.81;4969317;28;20093;-74
2021/09/06 01:27:49;;;;;;;34.65;15.75;;;;;;;14.89;76.90;101971.13;5002957;28;20125;-74
2021/09/06 01:30:18;;;;;;;28.90;16.40;;;;;;;14.85;76.88;101970.59;5001910;28;20073;-74
2021/09/06 01:32:44;;;;;;;27.83;15.45;;;;;;;14.83;77.07;101969.94;5000477;28;20034;-74
2021/09/06 01:35:12;;;;;;;26.23;14.88;;;;;;;14.84;77.27;101973.38;4998760;28;20034;-75
2021/09/06 01:37:42;;;;;;;33.17;17.05;;;;;;;14.83;77.04;101976.97;5002361;28;20484;-74
2021/09/06 01:40:08;;;;;;;27.42;15.18;;;;;;;14.74;77.30;101983.94;5002420;28;20081;-74
2021/09/06 01:42:34;;;;;;;30.65;16.48;;;;;;;14.69;77.75;101973.13;4983028;28;20151;-74
2021/09/06 01:45:04;;;;;;;30.75;16.63;;;;;;;14.64;77.81;101978.81;5001517;28;20416;-73
2021/09/06 01:47:31;;;;;;;31.90;15.93;;;;;;;14.51;78.42;101979.19;5001675;28;20026;-74
2021/09/06 01:49:59;;;;;;;31.92;16.48;;;;;;;14.42;79.09;101987.94;4985105;28;20026;-74
2021/09/06 01:52:27;;;;;;;28.42;15.57;;;;;;;14.33;79.48;101991.44;5001516;28;20026;-74
2021/09/06 01:54:58;;;;;;;27.20;14.90;;;;;;;14.29;79.81;101992.72;5001544;28;20042;-75
2021/09/06 01:57:24;;;;;;;31.67;16.52;;;;;;;14.24;79.92;101992.34;5002234;28;20484;-74
2021/09/06 01:59:50;;;;;;;27.60;16.13;;;;;;;14.27;79.78;101994.69;4985731;28;20038;-74
2021/09/06 02:02:17;;;;;;;29.73;15.88;;;;;;;14.29;79.70;101984.91;5001193;28;20031;-74
2021/09/06 02:04:43;;;;;;;31.77;17.15;;;;;;;14.33;79.22;101996.66;5001182;28;20030;-74
2021/09/06 02:07:09;;;;;;;29.38;16.02;;;;;;;14.36;78.88;101989.38;5003128;28;20037;-74
2021/09/06 02:09:35;;;;;;;29.10;15.55;;;;;;;14.36;78.87;101997.19;4999979;28;20053;-74
2021/09/06 02:12:05;;;;;;;30.02;16.90;;;;;;;14.37;78.85;101992.78;5000671;28;20085;-74
2021/09/06 02:14:32;;;;;;;29.38;15.93;;;;;;;14.36;78.85;101985.94;4999417;28;20265;-74
2021/09/06 02:16:58;;;;;;;30.33;15.73;;;;;;;14.38;78.61;101984.00;4999876;28;20408;-74
2021/09/06 02:19:35;;;;;;;33.63;17.35;;;;;;;14.37;78.15;101983.19;5001192;28;20125;-75
2021/09/06 02:22:00;;;;;;;30.80;17.20;;;;;;;14.30;78.53;101982.16;5000966;28;20245;-74
2021/09/06 02:24:28;;;;;;;34.17;16.42;;;;;;;14.26;79.00;101991.25;5001800;28;20373;-74
2021/09/06 02:27:01;;;;;;;31.08;15.20;;;;;;;14.25;79.05;101986.19;4986572;28;20030;-74
2021/09/06 02:29:28;;;;;;;29.95;16.60;;;;;;;14.25;78.84;101994.00;5001120;28;20038;-75
2021/09/06 02:32:05;;;;;;;29.38;16.40;;;;;;;14.22;78.77;101984.69;4999285;28;20026;-75
2021/09/06 02:34:37;;;;;;;33.80;17.90;;;;;;;14.16;79.24;101986.09;4998888;28;20255;-75
2021/09/06 02:37:03;;;;;;;30.77;16.73;;;;;;;14.05;79.84;101982.91;5001123;28;20045;-74
2021/09/06 02:39:37;;;;;;;30.48;17.20;;;;;;;14.02;80.08;101982.25;4983880;28;20037;-75
2021/09/06 02:42:04;;;;;;;28.80;15.73;;;;;;;14.02;80.00;101981.44;4984252;28;20080;-74
2021/09/06 02:44:33;;;;;;;29.58;16.08;;;;;;;14.02;79.83;101976.22;4998888;28;20076;-74
2021/09/06 02:47:03;;;;;;;29.63;15.05;;;;;;;14.04;79.64;101982.09;4999764;28;20046;-75
2021/09/06 02:49:31;;;;;;;28.83;15.70;;;;;;;14.06;79.17;101984.56;4999450;28;20037;-75
2021/09/06 02:51:57;;;;;;;30.38;16.52;;;;;;;14.02;78.90;101984.84;4998635;28;20022;-74
2021/09/06 02:54:27;;;;;;;33.25;16.85;;;;;;;13.94;79.58;101978.75;4999728;28;20412;-74
2021/09/06 02:56:52;;;;;;;29.92;16.77;;;;;;;13.85;80.08;101987.47;4999838;28;20056;-75
2021/09/06 02:59:18;;;;;;;29.90;15.27;;;;;;;13.85;80.32;101975.25;5001847;28;20034;-74
2021/09/06 03:01:44;;;;;;;32.33;16.77;;;;;;;13.87;79.92;101980.31;4999944;28;20567;-75
2021/09/06 03:04:09;;;;;;;31.02;16.95;;;;;;;13.88;79.58;101984.56;4967846;28;20030;-75
2021/09/06 03:06:35;;;;;;;27.65;15.80;;;;;;;13.89;78.91;101978.38;5001327;28;20023;-74
2021/09/06 03:09:02;;;;;;;28.58;16.55;;;;;;;13.87;79.00;101977.72;5001378;28;20064;-74
2021/09/06 03:11:29;;;;;;;31.83;16.55;;;;;;;13.81;79.25;101982.53;4999889;28;20054;-75
2021/09/06 03:13:56;;;;;;;31.33;16.83;;;;;;;13.80;79.29;101980.91;4998778;28;20042;-74
2021/09/06 03:16:22;;;;;;;35.72;18.48;;;;;;;13.79;79.24;101981.88;4984928;28;20030;-75
2021/09/06 03:18:49;;;;;;;31.27;17.35;;;;;;;13.73;79.77;101981.63;4998904;28;20062;-75
2021/09/06 03:21:24;;;;;;;26.23;15.10;;;;;;;13.70;79.49;101987.97;4996726;28;20042;-75
2021/09/06 03:23:53;;;;;;;32.58;16.13;;;;;;;13.65;79.99;101992.81;4999882;28;20075;-75
2021/09/06 03:26:19;;;;;;;27.70;15.15;;;;;;;13.65;80.26;101992.81;4999967;28;20026;-75
2021/09/06 03:28:46;;;;;;;30.52;16.08;;;;;;;13.60;80.07;101995.06;4985037;28;20038;-74
2021/09/06 03:31:13;;;;;;;29.55;15.63;;;;;;;13.55;80.40;101994.66;4999254;28;20029;-75
2021/09/06 03:33:39;;;;;;;31.35;16.30;;;;;;;13.50;80.66;101997.69;4999749;28;20038;-75
2021/09/06 03:36:05;;;;;;;29.35;14.88;;;;;;;13.50;80.63;101995.09;4999199;28;20031;-75
2021/09/06 03:38:33;;;;;;;29.65;15.68;;;;;;;13.49;80.33;101996.06;4983372;28;20033;-75
2021/09/06 03:40:59;;;;;;;27.55;15.65;;;;;;;13.48;80.32;101994.41;4998118;28;20035;-75
2021/09/06 03:43:27;;;;;;;33.10;17.00;;;;;;;13.46;80.29;101992.94;4997980;28;20030;-75
2021/09/06 03:45:52;;;;;;;29.50;15.98;;;;;;;13.41;80.35;101995.97;4997790;28;20097;-75
2021/09/06 03:48:18;;;;;;;31.52;14.82;;;;;;;13.40;80.39;101995.16;4999390;28;20030;-75
2021/09/06 03:50:46;;;;;;;34.25;16.92;;;;;;;13.41;80.19;101994.19;4998093;28;20533;-75
2021/09/06 03:53:12;;;;;;;27.42;15.35;;;;;;;13.42;80.11;101997.59;4999097;28;20038;-75
2021/09/06 03:55:38;;;;;;;33.08;16.05;;;;;;;13.42;79.56;101993.22;4984272;28;20034;-76
2021/09/06 03:58:06;;;;;;;32.30;16.70;;;;;;;13.41;79.18;101996.81;4999566;28;20026;-75
2021/09/06 04:00:31;;;;;;;29.30;17.13;;;;;;;13.41;79.10;102001.16;5001973;28;20061;-76
2021/09/06 04:02:58;;;;;;;27.75;14.50;;;;;;;13.41;78.79;101999.41;4981959;28;20056;-76
2021/09/06 04:05:26;;;;;;;31.92;16.33;;;;;;;13.35;79.23;101999.16;4982099;28;20030;-76
2021/09/06 04:07:53;;;;;;;29.05;16.23;;;;;;;13.33;79.33;102003.69;4999517;28;20034;-75
2021/09/06 04:10:20;;;;;;;31.63;15.18;;;;;;;13.30;79.36;102001.34;4980482;28;20034;-75
2021/09/06 04:12:45;;;;;;;31.75;16.60;;;;;;;13.28;79.57;102000.66;4998197;28;20041;-76
2021/09/06 04:15:13;;;;;;;30.83;16.70;;;;;;;13.27;79.42;102004.25;4981545;28;20029;-76
2021/09/06 04:17:38;;;;;;;29.48;15.82;;;;;;;13.22;79.66;102002.91;4999192;28;20041;-76
2021/09/06 04:20:06;;;;;;;28.60;15.25;;;;;;;13.16;79.96;102013.06;4999197;28;20050;-75
2021/09/06 04:22:33;;;;;;;31.17;16.88;;;;;;;13.14;79.92;102010.59;4997183;28;20031;-75
2021/09/06 04:25:00;;;;;;;34.70;17.50;;;;;;;13.12;80.31;102009.09;4999263;28;20488;-76
2021/09/06 04:27:26;;;;;;;30.38;16.02;;;;;;;13.08;80.23;102008.56;4985163;28;20097;-75
2021/09/06 04:29:51;;;;;;;29.90;15.60;;;;;;;13.08;80.38;102018.16;4998955;28;20034;-76
2021/09/06 04:32:17;;;;;;;31.33;15.70;;;;;;;13.06;80.32;102018.31;4999199;28;20507;-76
2021/09/06 04:34:43;;;;;;;38.10;18.27;;;;;;;13.07;80.11;102019.94;4996681;28;20026;-75
2021/09/06 04:37:09;;;;;;;27.10;15.88;;;;;;;13.07;80.04;102016.50;5000514;28;20034;-76
2021/09/06 04:39:40;;;;;;;31.20;16.23;;;;;;;13.01;80.24;102013.50;5000720;28;20029;-76
2021/09/06 04:42:07;;;;;;;33.35;16.50;;;;;;;13.01;80.37;102016.09;4999474;28;20388;-75
2021/09/06 04:44:32;;;;;;;31.35;17.50;;;;;;;13.00;80.12;102016.28;4999090;28;20026;-76
2021/09/06 04:46:58;;;;;;;33.30;18.33;;;;;;;12.95;80.02;102016.69;5001273;28;20113;-76
2021/09/06 04:49:24;;;;;;;32.70;17.15;;;;;;;12.93;80.08;102029.03;4997447;28;20407;-76
2021/09/06 04:51:50;;;;;;;30.73;15.50;;;;;;;12.93;80.21;102023.81;4984082;28;20070;-74
2021/09/06 04:54:18;;;;;;;30.77;15.98;;;;;;;12.93;80.15;102023.00;4996941;28;20026;-78
2021/09/06 04:56:44;;;;;;;29.38;16.55;;;;;;;12.92;80.14;102029.16;4987534;28;20092;-77
2021/09/06 04:59:11;;;;;;;33.30;18.08;;;;;;;12.88;79.88;102028.63;4985654;28;20542;-76
2021/09/06 05:01:36;;;;;;;36.08;16.60;;;;;;;12.83;80.65;102036.06;5003032;28;20040;-76
2021/09/06 05:04:03;;;;;;;29.35;15.70;;;;;;;12.84;80.63;102040.28;5001532;28;20639;-75
2021/09/06 05:06:28;;;;;;;33.25;17.20;;;;;;;12.81;80.81;102032.78;5003277;28;20030;-75
2021/09/06 05:08:54;;;;;;;31.75;17.55;;;;;;;12.79;81.00;102032.91;5002159;28;20100;-76
2021/09/06 05:11:20;;;;;;;34.75;17.80;;;;;;;12.81;80.93;102035.38;5003544;28;20075;-76
2021/09/06 05:13:45;;;;;;;32.25;17.48;;;;;;;12.81;80.83;102038.78;5001459;28;20524;-78
2021/09/06 05:16:13;;;;;;;30.58;17.35;;;;;;;12.80;80.97;102044.13;5001565;28;20046;-77
2021/09/06 05:18:39;;;;;;;34.78;18.33;;;;;;;12.80;81.19;102049.34;4987722;28;20420;-76
2021/09/06 05:21:04;;;;;;;32.03;16.65;;;;;;;12.81;81.17;102051.81;4970735;28;20025;-76
2021/09/06 05:23:30;;;;;;;37.15;18.25;;;;;;;12.83;81.04;102051.66;5001335;28;20112;-77
2021/09/06 05:25:59;;;;;;;36.55;17.98;;;;;;;12.85;80.88;102052.34;5001254;28;20041;-77
2021/09/06 05:28:26;;;;;;;31.90;16.52;;;;;;;12.85;81.11;102063.56;4998507;28;20034;-76
2021/09/06 05:30:52;;;;;;;33.92;17.92;;;;;;;12.84;81.30;102061.09;5003994;28;20022;-76
2021/09/06 05:33:18;;;;;;;36.25;17.70;;;;;;;12.84;81.62;102061.91;4987513;28;20416;-76
2021/09/06 05:35:47;;;;;;;31.83;16.10;;;;;;;12.85;81.51;102057.56;5004430;28;20034;-77
2021/09/06 05:38:14;;;;;;;35.78;17.70;;;;;;;12.86;81.62;102059.19;4988174;28;20041;-77
2021/09/06 05:40:59;;;;;;;32.00;17.58;;;;;;;12.90;81.47;102060.53;4989016;28;20046;-77
2021/09/06 05:43:25;;;;;;;32.35;17.05;;;;;;;12.91;81.50;102062.19;5003025;28;20038;-76
2021/09/06 05:45:51;;;;;;;33.65;16.50;;;;;;;12.93;81.43;102064.66;5005116;28;20034;-76
2021/09/06 05:48:17;;;;;;;31.33;16.10;;;;;;;12.95;81.42;102068.75;5009809;28;20060;-75
2021/09/06 05:50:44;;;;;;;36.25;16.88;;;;;;;12.98;81.07;102067.66;5001394;28;20539;-76
2021/09/06 05:53:29;;;;;;;33.50;16.52;;;;;;;13.01;80.92;102067.38;4987202;28;20038;-77
2021/09/06 05:55:54;;;;;;;32.75;17.13;;;;;;;13.04;81.25;102059.28;5003955;28;20084;-77
2021/09/06 05:58:20;;;;;;;31.67;17.45;;;;;;;13.07;81.28;102064.19;5002279;28;20365;-77
2021/09/06 06:00:46;;;;;;;31.17;17.20;;;;;;;13.09;81.13;102064.06;5001563;28;20034;-76
2021/09/06 06:03:12;;;;;;;32.28;17.52;;;;;;;13.12;81.10;102063.78;4984795;28;20033;-77
2021/09/06 06:05:41;;;;;;;37.63;19.15;;;;;;;13.13;81.40;102062.81;4990843;28;20025;-76
2021/09/06 06:08:07;;;;;;;36.50;18.27;;;;;;;13.16;81.63;102062.53;5002301;28;20389;-77
2021/09/06 06:10:33;;;;;;;29.70;16.60;;;;;;;13.19;81.67;102070.88;4986902;28;20030;-77
2021/09/06 06:12:59;;;;;;;31.77;16.73;;;;;;;13.21;82.19;102068.97;4983934;28;20125;-76
2021/09/06 06:15:24;;;;;;;33.58;18.35;;;;;;;13.25;82.24;102066.88;5000622;28;20030;-76
2021/09/06 06:17:50;;;;;;;33.67;18.08;;;;;;;13.31;82.19;102068.13;5000370;28;20061;-76
2021/09/06 06:20:18;;;;;;;31.58;15.98;;;;;;;13.36;82.08;102074.56;5003611;28;20038;-77
2021/09/06 06:23:07;;;;;;;39.72;19.30;;;;;;;13.42;82.47;102075.78;4983559;28;20596;-77
2021/09/06 06:25:50;;;;;;;31.33;17.27;;;;;;;13.50;82.29;102077.66;4996098;28;20038;-76
2021/09/06 06:28:19;;;;;;;32.10;18.05;;;;;;;13.57;82.13;102082.13;5002016;28;20035;-77
2021/09/06 06:30:47;;;;;;;37.63;18.67;;;;;;;13.62;82.50;102076.50;5003680;28;20082;-77
2021/09/06 06:33:13;;;;;;;42.28;19.83;;;;;;;13.71;82.81;102073.03;5003958;28;20026;-77
2021/09/06 06:35:42;;;;;;;37.60;19.48;;;;;;;13.82;82.72;102079.81;4985290;28;20026;-76
2021/09/06 06:38:08;;;;;;;37.22;19.27;;;;;;;13.97;82.51;102093.19;5000104;28;20037;-76
2021/09/06 06:40:37;;;;;;;34.15;19.42;;;;;;;14.14;82.48;102092.38;4999763;28;20030;-77
2021/09/06 06:43:04;;;;;;;33.58;18.58;;;;;;;14.33;82.20;102088.78;4985393;28;20088;-75
2021/09/06 06:48:15;;;;;;;36.65;19.48;;;;;;;14.87;81.61;102087.97;5029496;22;20540;-72
2021/09/06 06:50:42;;;;;;;39.40;21.35;;;;;;;15.22;80.80;102080.97;5003302;28;20507;-73
2021/09/06 06:53:08;;;;;;;38.40;20.52;;;;;;;15.64;79.49;102088.84;5025618;28;20033;-72
2021/09/06 06:55:33;;;;;;;38.40;20.25;;;;;;;16.33;77.82;102086.06;5026254;28;20029;-72
2021/09/06 06:58:00;;;;;;;39.42;20.60;;;;;;;17.02;75.35;102094.38;5025359;28;20041;-72
2021/09/06 07:00:27;;;;;;;34.90;19.83;;;;;;;17.62;73.08;102095.66;5028587;28;20406;-72
2021/09/06 07:02:52;;;;;;;38.22;19.65;;;;;;;18.25;70.75;102096.47;5013909;23;20038;-70
2021/09/06 07:05:19;;;;;;;30.85;18.40;;;;;;;18.82;68.56;102095.19;4984437;28;20049;-69
2021/09/06 07:07:47;;;;;;;36.63;19.52;;;;;;;19.29;67.04;102095.03;5002718;28;20126;-69
2021/09/06 07:10:13;;;;;;;30.90;17.75;;;;;;;19.76;65.55;102099.06;5001364;28;20042;-69
2021/09/06 07:12:40;;;;;;;34.90;21.42;;;;;;;19.91;64.30;102099.00;4987992;28;20513;-69
2021/09/06 07:15:08;;;;;;;39.47;19.80;;;;;;;20.21;63.60;102094.44;4990168;28;20104;-70
2021/09/06 07:17:34;;;;;;;34.67;19.33;;;;;;;20.55;62.49;102101.66;4986038;28;20026;-70
2021/09/06 07:20:00;;;;;;;33.22;18.35;;;;;;;20.78;61.50;102111.97;4987465;28;20033;-70
2021/09/06 07:22:26;;;;;;;36.50;19.58;;;;;;;20.86;61.46;102108.38;5001032;28;20491;-70
2021/09/06 07:24:53;;;;;;;39.42;20.02;;;;;;;21.05;61.28;102108.69;5004055;28;20033;-69
2021/09/06 07:27:20;;;;;;;39.55;21.08;;;;;;;21.24;60.83;102115.09;5003483;28;20022;-69
2021/09/06 07:29:48;;;;;;;34.95;19.88;;;;;;;21.66;58.49;102108.81;4991729;28;20488;-70
2021/09/06 07:32:14;;;;;;;37.92;20.67;;;;;;;21.73;57.24;102114.09;4999461;28;20499;-70
2021/09/06 07:34:40;;;;;;;36.42;21.75;;;;;;;21.66;58.83;102119.38;5003812;28;20029;-70
2021/09/06 07:37:08;;;;;;;41.95;23.20;;;;;;;21.95;57.61;102120.84;5011824;28;20075;-70
2021/09/06 07:39:35;;;;;;;46.13;29.02;;;;;;;22.17;56.64;102124.16;5013071;28;20435;-70
2021/09/06 07:42:02;;;;;;;42.10;24.80;;;;;;;22.39;55.66;102123.97;5013156;28;21060;-70
2021/09/06 07:44:29;;;;;;;52.50;33.05;;;;;;;22.45;54.92;102127.66;5015376;28;20049;-70
2021/09/06 07:46:55;;;;;;;53.83;30.35;;;;;;;22.44;54.84;102128.69;4997875;28;20032;-70
2021/09/06 07:49:21;;;;;;;50.13;28.40;;;;;;;22.61;56.33;102124.59;5017105;28;20470;-69
2021/09/06 07:51:52;;;;;;;46.05;26.83;;;;;;;22.81;56.21;102124.59;5014898;28;20537;-70
2021/09/06 07:54:25;;;;;;;44.15;25.48;;;;;;;23.10;55.26;102131.25;4994649;28;20512;-70
2021/09/06 07:56:53;;;;;;;52.75;25.48;;;;;;;23.25;55.37;102130.22;5016988;28;20042;-71
2021/09/06 07:59:20;;;;;;;41.53;25.15;;;;;;;23.39;54.19;102131.78;5013269;28;20495;-70
2021/09/06 08:01:47;;;;;;;44.75;25.63;;;;;;;23.63;53.49;102124.16;5011120;28;20078;-70
2021/09/06 08:04:13;;;;;;;46.97;26.73;;;;;;;23.73;53.46;102134.28;4996903;28;20065;-71
2021/09/06 08:06:39;;;;;;;42.45;25.13;;;;;;;23.91;52.73;102131.78;4996730;28;20388;-70
2021/09/06 08:09:05;;;;;;;44.40;26.40;;;;;;;23.96;52.52;102131.13;4998108;28;20440;-71
2021/09/06 08:11:31;;;;;;;39.90;24.98;;;;;;;24.16;51.62;102133.66;5003228;28;20030;-71
2021/09/06 08:13:58;;;;;;;42.22;24.10;;;;;;;24.31;51.62;102134.16;4993259;28;20080;-70
2021/09/06 08:16:25;;;;;;;42.78;25.67;;;;;;;24.46;50.96;102134.63;4990585;28;20034;-70
2021/09/06 08:18:51;;;;;;;47.67;26.20;;;;;;;24.58;50.70;102134.78;4989901;28;20398;-70
2021/09/06 08:21:18;;;;;;;46.45;27.92;;;;;;;24.50;51.43;102137.66;4992045;28;20387;-71
2021/09/06 08:23:43;;;;;;;39.92;24.67;;;;;;;24.84;50.68;102135.53;5009711;28;20128;-71
2021/09/06 08:26:09;;;;;;;40.72;25.20;;;;;;;24.95;49.96;102139.31;5010078;28;20108;-71
2021/09/06 08:28:35;;;;;;;46.58;26.45;;;;;;;25.08;50.30;102144.50;4994787;28;20030;-71
2021/09/06 08:31:01;;;;;;;46.63;25.73;;;;;;;25.22;50.01;102138.00;5010999;28;20042;-70
2021/09/06 08:33:28;;;;;;;45.25;26.73;;;;;;;25.29;50.07;102156.53;5000954;28;20125;-71
2021/09/06 08:35:55;;;;;;;42.28;24.45;;;;;;;25.29;49.21;102143.25;4993827;28;20041;-71
2021/09/06 08:38:22;;;;;;;43.25;24.30;;;;;;;25.18;48.71;102143.97;4994522;28;20057;-70
2021/09/06 08:40:54;;;;;;;40.60;25.08;;;;;;;25.19;48.83;102149.06;4994601;28;20033;-70
2021/09/06 08:43:19;;;;;;;39.30;23.33;;;;;;;25.45;49.59;102152.47;4994225;28;20095;-71
2021/09/06 08:45:45;;;;;;;40.83;25.02;;;;;;;25.76;47.95;102146.13;5000908;28;20089;-71
2021/09/06 08:48:11;;;;;;;33.97;21.98;;;;;;;25.83;47.18;102154.81;4993953;28;20029;-71
2021/09/06 08:50:39;;;;;;;36.47;21.15;;;;;;;25.91;47.65;102155.53;5010558;28;20096;-70
2021/09/06 08:53:07;;;;;;;36.58;19.70;;;;;;;26.24;45.95;102152.44;5008601;28;20508;-70
2021/09/06 08:55:37;;;;;;;37.50;21.42;;;;;;;26.36;45.63;102149.78;4994656;28;20036;-71
2021/09/06 08:58:03;;;;;;;34.60;19.40;;;;;;;26.35;46.59;102153.47;5001449;28;20112;-71
2021/09/06 09:00:31;;;;;;;31.17;19.27;;;;;;;26.51;46.33;102152.81;4994707;28;20033;-70
2021/09/06 09:03:15;;;;;;;32.90;20.83;;;;;;;26.58;46.57;102156.16;5011895;28;20466;-71
2021/09/06 09:06:04;;;;;;;37.58;20.77;;;;;;;26.54;45.86;102154.19;5018347;28;20045;-71
2021/09/06 09:09:02;;;;;;;37.08;20.48;;;;;;;26.57;46.43;102161.72;4982959;28;20049;-70
2021/09/06 09:12:03;;;;;;;27.40;18.45;;;;;;;26.58;47.25;102166.00;4997665;28;20488;-71
2021/09/06 09:14:49;;;;;;;30.27;19.73;;;;;;;26.37;46.28;102160.19;5008302;28;20153;-70
2021/09/06 09:17:27;;;;;;;31.95;17.88;;;;;;;26.42;45.18;102159.50;5019243;28;20110;-71
2021/09/06 09:20:08;;;;;;;29.40;17.88;;;;;;;26.54;45.79;102156.84;5019876;28;20030;-71
2021/09/06 09:22:52;;;;;;;36.50;19.08;;;;;;;26.50;46.70;102153.03;5014545;28;20071;-71
2021/09/06 09:25:31;;;;;;;37.92;20.58;;;;;;;26.21;45.97;102155.53;4997250;28;20460;-71
2021/09/06 09:28:14;;;;;;;28.98;18.00;;;;;;;25.97;44.71;102160.78;4989914;28;20030;-71
2021/09/06 09:31:18;;;;;;;29.08;19.45;;;;;;;25.90;46.67;102167.19;5017622;28;20181;-71
2021/09/06 09:33:51;;;;;;;31.65;18.10;;;;;;;25.87;46.96;102159.69;4999183;28;20141;-70
2021/09/06 09:36:53;;;;;;;27.50;17.25;;;;;;;25.78;45.41;102165.31;5008057;28;20042;-71
2021/09/06 09:39:22;;;;;;;28.58;17.25;;;;;;;25.75;46.21;102165.78;5000006;28;20037;-71
2021/09/06 09:41:52;;;;;;;31.63;16.77;;;;;;;26.10;45.12;102159.78;4996028;28;20427;-71
2021/09/06 09:44:21;;;;;;;24.20;15.18;;;;;;;26.03;44.46;102165.22;5011920;28;20050;-70
2021/09/06 09:47:10;;;;;;;28.10;16.30;;;;;;;25.95;42.22;102162.06;5001220;28;20033;-71
2021/09/06 09:49:37;;;;;;;24.17;16.58;;;;;;;25.90;44.22;102161.88;5010343;28;20041;-70
2021/09/06 09:52:06;;;;;;;26.65;16.23;;;;;;;25.88;44.14;102162.13;5020084;28;20523;-71
2021/09/06 09:54:33;;;;;;;28.02;15.40;;;;;;;25.97;44.56;102162.63;5010483;28;20037;-70
2021/09/06 09:57:00;;;;;;;24.80;16.05;;;;;;;26.03;44.10;102157.25;5011858;28;20061;-70
2021/09/06 09:59:27;;;;;;;27.20;15.57;;;;;;;26.07;44.97;102162.09;4999782;28;20034;-71
2021/09/06 10:02:19;;;;;;;22.08;13.90;;;;;;;26.05;45.63;102156.19;4994127;28;20088;-71
2021/09/06 10:05:00;;;;;;;25.40;15.50;;;;;;;26.01;45.68;102155.81;4986794;28;20133;-70
2021/09/06 10:07:29;;;;;;;22.75;14.70;;;;;;;26.19;43.49;102147.78;4998742;28;20034;-70
2021/09/06 10:09:55;;;;;;;21.10;14.40;;;;;;;26.12;44.68;102149.72;5007508;28;20377;-70
2021/09/06 10:12:30;;;;;;;26.42;16.10;;;;;;;26.17;43.37;102141.91;4992882;28;20029;-71
2021/09/06 10:15:01;;;;;;;24.63;14.93;;;;;;;26.05;44.05;102143.72;5010084;28;20117;-70
2021/09/06 10:17:35;;;;;;;34.13;17.17;;;;;;;25.90;43.73;102140.63;5008603;28;20029;-70
2021/09/06 10:20:04;;;;;;;22.67;15.68;;;;;;;26.05;43.12;102142.91;5016679;28;20861;-70
2021/09/06 10:22:31;;;;;;;25.88;16.80;;;;;;;26.21;43.25;102139.59;4992102;28;20050;-71
2021/09/06 10:24:58;;;;;;;24.30;14.75;;;;;;;26.32;44.69;102143.31;4999937;28;20026;-71
2021/09/06 10:27:26;;;;;;;29.52;15.90;;;;;;;26.27;43.75;102138.66;4989531;28;20034;-71
2021/09/06 10:30:09;;;;;;;30.02;17.27;;;;;;;26.16;44.19;102137.63;5009935;28;20109;-72
2021/09/06 10:32:47;;;;;;;25.15;15.25;;;;;;;26.34;42.57;102141.22;5014850;28;20080;-71
2021/09/06 10:35:14;;;;;;;22.70;14.60;;;;;;;26.27;44.87;102136.00;5003227;28;20044;-71
2021/09/06 10:37:43;;;;;;;22.50;14.60;;;;;;;26.28;45.87;102132.34;4997870;28;20029;-70
2021/09/06 10:40:12;;;;;;;25.77;14.57;;;;;;;26.32;45.78;102140.66;5009713;28;20120;-71
2021/09/06 10:42:41;;;;;;;22.17;14.23;;;;;;;26.25;44.47;102131.97;4997172;28;20022;-70
2021/09/06 10:45:08;;;;;;;25.55;14.48;;;;;;;26.04;47.13;102134.13;5001387;28;20522;-71
2021/09/06 10:47:40;;;;;;;26.10;14.18;;;;;;;26.02;45.45;102129.03;4994267;28;20040;-71
2021/09/06 10:50:16;;;;;;;20.80;12.50;;;;;;;25.81;43.53;102138.31;5003789;28;20469;-71
2021/09/06 10:52:47;;;;;;;20.10;12.68;;;;;;;25.63;44.49;102133.03;4994291;28;20037;-71
2021/09/06 10:55:14;;;;;;;19.25;12.85;;;;;;;25.80;43.73;102134.00;4993704;28;20488;-70
2021/09/06 10:57:41;;;;;;;17.13;11.15;;;;;;;25.72;41.61;102136.19;4995329;28;20114;-70
2021/09/06 11:00:13;;;;;;;17.70;9.65;;;;;;;25.97;41.78;102138.72;4995364;28;20034;-71
2021/09/06 11:02:40;;;;;;;17.33;11.18;;;;;;;26.07;40.81;102136.34;5012605;28;20038;-70
2021/09/06 11:05:07;;;;;;;18.65;11.15;;;;;;;26.16;41.41;102142.94;5009176;28;20033;-70
2021/09/06 11:07:33;;;;;;;19.27;11.77;;;;;;;26.22;42.08;102139.38;5008915;28;20033;-70
2021/09/06 11:10:14;;;;;;;23.02;12.40;;;;;;;26.23;42.64;102130.34;4996707;28;20076;-70
2021/09/06 11:12:52;;;;;;;17.77;12.23;;;;;;;26.35;42.15;102132.22;4994536;28;20037;-71
2021/09/06 11:15:23;;;;;;;22.05;14.48;;;;;;;26.22;42.06;102133.25;5009088;28;20037;-71
2021/09/06 11:17:57;;;;;;;25.20;16.77;;;;;;;26.18;44.05;102126.75;5012183;28;20064;-70
2021/09/06 11:20:27;;;;;;;23.33;15.50;;;;;;;26.18;43.98;102132.06;4994669;28;20030;-71